Terminal Aerodrome Forecast
Issued by NWS

Home | Current Version | Previous Version | Text Only | Print | Product List | Glossary On
Versions: 1 2 3 4 5 6 7 8 9 10 11 12 13 14 15
000
FTUS46 KSGX 291410 AAA
TAFSNA
TAF AMD
KSNA 291410Z 2914/3012 VRB03KT P6SM BKN010
     FM291530 VRB04KT P6SM FEW012
     FM292000 22010KT P6SM SKC
     FM300200 VRB05KT P6SM FEW006
     FM300600 VRB05KT 6SM BR BKN007=

USA.gov is the U.S. government's official web portal to all federal, state and local government web resources and services.